Carrie, Kentucky
Current Conditions -  °F | °C
As of 1:53 PM on Thursday 27 Nov 2014 (Local Time) from KJKL Reporting Station
Overcast Overcast  
Wind Chill: 21°   Ceiling: 1900
Heat Index: 30°   Visibility: 9mi
Dew Point: 22°   Wind: 10mph
Humidity: 72%   Direction: 300°WNW
Pressure: 30.25"   Gusts: NA
Location:  37.33°N, 83.03°W
Report Text: KJKL 271853Z AUTO 30009KT 9SM OVC019 M01/M06 A3025 RMK AO2 SLP253 T10111056
Loading
Personal Weather Stations






























Interactive Weather Map New forecast layout! Learn more

10-Day Weather Forecast

Advertisements
Track Severe Weather on mobile